Time;durP1;ratioP1;P1;durP2;ratioP2;P2;SDS_P1;SDS_P2;PMS_P1;PMS_P2;Temp;Humidity;BMP_temperature;BMP_pressure;BME280_temperature;BME280_humidity;BME280_pressure;Samples;Min_cycle;Max_cycle;Signal;HPM_P1;HPM_P2
2021/04/10 00:01:26;;;;;;;1.50;1.40;;;19.00;56.40;;;;;;4773561;29;20243;-83
2021/04/10 00:03:52;;;;;;;2.37;1.30;;;19.00;56.50;;;;;;4773334;30;20563;-83
2021/04/10 00:06:19;;;;;;;2.77;1.40;;;19.00;56.30;;;;;;4773167;29;20208;-83
2021/04/10 00:08:45;;;;;;;1.33;1.20;;;19.00;56.50;;;;;;4773160;29;20201;-84
2021/04/10 00:11:12;;;;;;;1.93;1.40;;;18.90;56.40;;;;;;4773587;30;20201;-83
2021/04/10 00:13:38;;;;;;;2.50;1.20;;;18.90;56.40;;;;;;4773242;30;20177;-83
2021/04/10 00:16:05;;;;;;;2.30;1.37;;;19.00;56.40;;;;;;4773234;30;20205;-82
2021/04/10 00:18:31;;;;;;;1.97;1.47;;;18.90;56.50;;;;;;4772970;29;20201;-82
2021/04/10 00:20:58;;;;;;;1.53;1.33;;;18.90;56.40;;;;;;4771889;30;20201;-83
2021/04/10 00:23:25;;;;;;;3.40;1.33;;;18.90;56.40;;;;;;4772048;30;20250;-83
2021/04/10 00:25:52;;;;;;;1.90;1.37;;;18.90;56.60;;;;;;4759024;29;20278;-83
2021/04/10 00:28:19;;;;;;;1.20;1.10;;;18.90;56.40;;;;;;4755214;30;20237;-82
2021/04/10 00:30:46;;;;;;;1.40;1.30;;;18.90;56.50;;;;;;4754737;30;20221;-83
2021/04/10 00:33:13;;;;;;;2.87;1.40;;;18.80;56.50;;;;;;4771914;30;20736;-83
2021/04/10 00:35:42;;;;;;;1.30;1.20;;;18.80;56.50;;;;;;4772360;29;20201;-83
2021/04/10 00:38:08;;;;;;;1.60;1.40;;;18.80;56.50;;;;;;4772546;30;20204;-84
2021/04/10 00:40:37;;;;;;;2.97;1.30;;;18.80;56.60;;;;;;4771787;30;20213;-83
2021/04/10 00:43:14;;;;;;;2.67;1.50;;;18.80;56.50;;;;;;4772093;30;20283;-83
2021/04/10 00:45:40;;;;;;;2.33;1.70;;;18.80;56.50;;;;;;4771532;29;20204;-84
2021/04/10 00:48:06;;;;;;;1.97;1.50;;;18.80;56.50;;;;;;4772985;30;20216;-84
2021/04/10 00:50:33;;;;;;;2.80;1.50;;;18.80;56.50;;;;;;4773311;30;20201;-83
2021/04/10 00:52:59;;;;;;;1.70;1.60;;;18.80;57.20;;;;;;4772800;30;20201;-84
2021/04/10 00:55:26;;;;;;;2.27;1.53;;;18.80;56.40;;;;;;4772805;30;20677;-84
2021/04/10 00:57:54;;;;;;;2.47;1.90;;;18.70;56.50;;;;;;4772890;29;20204;-83
2021/04/10 01:00:21;;;;;;;3.27;1.77;;;18.70;56.40;;;;;;4771741;29;20235;-83
2021/04/10 01:02:48;;;;;;;2.40;1.27;;;18.70;56.50;;;;;;4772334;30;20200;-83
2021/04/10 01:05:14;;;;;;;2.87;1.47;;;18.70;56.50;;;;;;4771266;30;20579;-83
2021/04/10 01:07:44;;;;;;;1.90;1.60;;;18.70;57.00;;;;;;4772384;29;20269;-83
2021/04/10 01:10:11;;;;;;;3.27;1.73;;;18.70;56.50;;;;;;4772600;30;20216;-84
2021/04/10 01:12:56;;;;;;;1.97;1.57;;;18.70;56.40;;;;;;4772192;30;20711;-82
2021/04/10 01:15:57;;;;;;;2.37;1.80;;;18.70;56.40;;;;;;4772053;29;20205;-82
2021/04/10 01:18:30;;;;;;;2.20;1.80;;;18.70;56.50;;;;;;4772277;30;20638;-82
2021/04/10 01:21:10;;;;;;;3.13;1.77;;;18.70;56.20;;;;;;4772048;30;20215;-83
2021/04/10 01:23:59;;;;;;;2.17;1.90;;;18.60;56.20;;;;;;4772257;30;20697;-82
2021/04/10 01:26:33;;;;;;;2.27;1.57;;;18.70;56.40;;;;;;4771996;29;20200;-82
2021/04/10 01:29:05;;;;;;;2.10;1.80;;;18.60;56.30;;;;;;4754556;30;20228;-82
2021/04/10 01:31:48;;;;;;;1.80;1.70;;;18.70;56.40;;;;;;4754449;30;20721;-82
2021/04/10 01:34:26;;;;;;;4.77;1.87;;;18.60;56.20;;;;;;4761003;30;20224;-82
2021/04/10 01:36:55;;;;;;;2.07;1.73;;;18.60;56.30;;;;;;4772275;30;20176;-82
2021/04/10 01:39:23;;;;;;;2.90;1.93;;;18.60;56.30;;;;;;4772172;29;20266;-82
2021/04/10 01:41:52;;;;;;;1.83;1.57;;;18.60;56.20;;;;;;4756096;30;20328;-82
2021/04/10 01:44:19;;;;;;;2.30;2.10;;;18.60;56.00;;;;;;4770884;30;20224;-81
2021/04/10 01:46:48;;;;;;;3.43;2.07;;;18.60;56.00;;;;;;4770321;30;20262;-82
2021/04/10 01:49:15;;;;;;;2.00;1.80;;;18.60;56.10;;;;;;4771301;30;20216;-81
2021/04/10 01:51:42;;;;;;;2.03;1.57;;;18.50;56.10;;;;;;4771403;29;20208;-83
2021/04/10 01:54:11;;;;;;;2.80;1.90;;;18.50;56.10;;;;;;4771359;30;20201;-84
2021/04/10 01:56:46;;;;;;;2.20;1.87;;;18.50;56.00;;;;;;4771765;30;20205;-84
2021/04/10 01:59:15;;;;;;;3.43;1.77;;;18.50;56.10;;;;;;4771711;30;20207;-83
2021/04/10 02:01:44;;;;;;;2.77;1.80;;;18.50;56.10;;;;;;4771111;30;20231;-83
2021/04/10 02:04:12;;;;;;;2.70;1.70;;;18.50;56.00;;;;;;4771075;29;20234;-84
2021/04/10 02:06:41;;;;;;;2.80;1.60;;;18.50;56.10;;;;;;4771587;30;20234;-83
2021/04/10 02:09:11;;;;;;;2.10;1.70;;;18.50;55.90;;;;;;4771068;30;20201;-82
2021/04/10 02:11:41;;;;;;;3.47;2.07;;;18.50;56.10;;;;;;4771206;30;20204;-83
2021/04/10 02:14:11;;;;;;;2.37;1.70;;;18.50;56.10;;;;;;4770150;30;20204;-82
2021/04/10 02:16:38;;;;;;;2.90;1.80;;;18.50;56.00;;;;;;4770470;30;20212;-83
2021/04/10 02:19:05;;;;;;;2.07;1.77;;;18.50;56.10;;;;;;4771018;30;20205;-82
2021/04/10 02:21:33;;;;;;;3.53;1.83;;;18.50;56.10;;;;;;4770943;30;20204;-82
2021/04/10 02:24:00;;;;;;;3.00;1.83;;;18.40;56.00;;;;;;4755270;30;20228;-82
2021/04/10 02:26:27;;;;;;;3.00;1.83;;;18.40;55.90;;;;;;4768878;30;20682;-83
2021/04/10 02:28:56;;;;;;;2.37;1.57;;;18.40;56.00;;;;;;4772303;29;20234;-84
2021/04/10 02:31:35;;;;;;;2.93;2.00;;;18.40;56.00;;;;;;4779701;30;20217;-83
2021/04/10 02:34:14;;;;;;;2.37;1.80;;;18.40;55.90;;;;;;4779409;30;20205;-83
2021/04/10 02:36:41;;;;;;;3.13;1.93;;;18.40;55.90;;;;;;4781866;30;20196;-83
2021/04/10 02:39:09;;;;;;;2.43;1.60;;;18.40;55.90;;;;;;4783656;30;20197;-83
2021/04/10 02:41:37;;;;;;;3.30;1.90;;;18.40;56.00;;;;;;4759010;29;20658;-82
2021/04/10 02:44:13;;;;;;;3.47;2.20;;;18.40;55.90;;;;;;4770180;30;20216;-82
2021/04/10 02:46:45;;;;;;;2.33;1.43;;;18.40;56.00;;;;;;4753530;30;20195;-83
2021/04/10 02:49:16;;;;;;;2.17;1.70;;;18.40;56.00;;;;;;4753961;30;20282;-83
2021/04/10 02:51:47;;;;;;;1.97;1.60;;;18.40;56.00;;;;;;4770818;29;20197;-84
2021/04/10 02:54:17;;;;;;;1.70;1.47;;;18.40;56.00;;;;;;4771042;30;20640;-84
2021/04/10 02:56:55;;;;;;;3.50;1.93;;;18.40;56.00;;;;;;4770626;29;20207;-83
2021/04/10 02:59:23;;;;;;;3.87;2.00;;;18.40;56.10;;;;;;4770707;29;20220;-84
2021/04/10 03:01:51;;;;;;;2.30;1.63;;;18.40;56.10;;;;;;4770504;30;20204;-83
2021/04/10 03:04:18;;;;;;;2.97;1.83;;;18.30;56.00;;;;;;4754959;29;20710;-84
2021/04/10 03:06:47;;;;;;;1.70;1.40;;;18.30;55.90;;;;;;4770081;29;20280;-85
2021/04/10 03:09:13;;;;;;;2.37;1.70;;;18.40;56.00;;;;;;4754274;29;20211;-85
2021/04/10 03:11:40;;;;;;;3.50;1.80;;;18.40;55.90;;;;;;4770155;29;20200;-84
2021/04/10 03:14:09;;;;;;;1.93;1.60;;;18.30;55.90;;;;;;4755404;29;20694;-84
2021/04/10 03:16:39;;;;;;;4.10;2.03;;;18.30;55.90;;;;;;4770113;30;20622;-84
2021/04/10 03:19:07;;;;;;;5.50;1.47;;;18.30;56.00;;;;;;4769513;30;20254;-85
2021/04/10 03:21:34;;;;;;;2.90;1.57;;;18.30;55.90;;;;;;4740383;30;20197;-84
2021/04/10 03:24:03;;;;;;;2.10;1.57;;;18.30;55.90;;;;;;4770861;30;20239;-84
2021/04/10 03:26:30;;;;;;;3.97;1.50;;;18.30;55.80;;;;;;4770310;29;20834;-84
2021/04/10 03:28:57;;;;;;;1.77;1.50;;;18.30;55.80;;;;;;4751494;30;20734;-84
2021/04/10 03:31:28;;;;;;;2.10;1.40;;;18.30;55.90;;;;;;4755243;29;20215;-84
2021/04/10 03:33:54;;;;;;;2.40;1.50;;;18.30;55.80;;;;;;4756467;29;20212;-84
2021/04/10 03:36:21;;;;;;;2.27;1.33;;;18.20;55.80;;;;;;4756065;29;20213;-83
2021/04/10 03:38:47;;;;;;;2.37;1.80;;;18.30;55.80;;;;;;4754839;30;20257;-83
2021/04/10 03:41:22;;;;;;;2.63;1.47;;;18.30;55.80;;;;;;4754071;30;20205;-85
2021/04/10 03:43:50;;;;;;;2.57;1.60;;;18.20;55.50;;;;;;4753899;29;20212;-85
2021/04/10 03:46:16;;;;;;;3.17;1.50;;;18.20;55.70;;;;;;4756438;30;20277;-85
2021/04/10 03:48:42;;;;;;;3.23;1.50;;;18.20;55.70;;;;;;4756144;29;20209;-85
2021/04/10 03:51:09;;;;;;;2.20;1.50;;;18.20;55.60;;;;;;4755209;29;20216;-84
2021/04/10 03:53:38;;;;;;;3.00;1.47;;;18.20;55.60;;;;;;4755976;30;20217;-82
2021/04/10 03:56:22;;;;;;;2.03;1.30;;;18.20;55.70;;;;;;4756009;30;20205;-82
2021/04/10 03:58:48;;;;;;;2.80;1.40;;;18.20;55.60;;;;;;4755459;30;20229;-83
2021/04/10 04:01:20;;;;;;;2.13;1.57;;;18.20;55.70;;;;;;4761077;29;20204;-82
2021/04/10 04:03:47;;;;;;;3.73;1.60;;;18.20;55.70;;;;;;4761238;30;20247;-82
2021/04/10 04:06:14;;;;;;;1.67;1.30;;;18.20;55.60;;;;;;4755428;30;20719;-82
2021/04/10 04:08:40;;;;;;;1.57;1.20;;;18.20;55.70;;;;;;4755834;30;20216;-80
2021/04/10 04:11:06;;;;;;;3.07;1.50;;;18.20;55.70;;;;;;4762144;30;20212;-83
2021/04/10 04:13:33;;;;;;;3.83;1.50;;;18.20;55.60;;;;;;4771199;30;20201;-82
2021/04/10 04:15:59;;;;;;;2.73;1.63;;;18.20;55.60;;;;;;4755689;30;20205;-82
2021/04/10 04:18:25;;;;;;;2.00;1.50;;;18.20;55.60;;;;;;4755005;30;20212;-82
2021/04/10 04:20:52;;;;;;;3.50;1.63;;;18.20;55.60;;;;;;4755034;29;20197;-82
2021/04/10 04:23:18;;;;;;;2.97;1.60;;;18.20;55.50;;;;;;4737698;30;20217;-82
2021/04/10 04:25:44;;;;;;;2.13;1.40;;;18.20;55.60;;;;;;4748919;30;20206;-81
2021/04/10 04:28:10;;;;;;;2.80;1.60;;;18.20;55.60;;;;;;4756783;30;20667;-81
2021/04/10 04:30:36;;;;;;;3.17;1.80;;;18.20;55.60;;;;;;4771273;30;20212;-81
2021/04/10 04:33:03;;;;;;;3.53;1.53;;;18.20;55.50;;;;;;4772674;30;20211;-82
2021/04/10 04:35:29;;;;;;;3.00;1.30;;;18.20;55.70;;;;;;4772668;29;20219;-82
2021/04/10 04:37:55;;;;;;;2.40;1.40;;;18.20;55.60;;;;;;4772758;30;20219;-82
2021/04/10 04:40:22;;;;;;;1.87;1.30;;;18.20;55.50;;;;;;4774197;30;20217;-81
2021/04/10 04:42:48;;;;;;;2.30;1.67;;;18.20;55.50;;;;;;4774930;30;20203;-81
2021/04/10 04:45:17;;;;;;;2.43;1.33;;;18.10;55.50;;;;;;4773178;30;20293;-81
2021/04/10 04:47:45;;;;;;;3.40;1.43;;;18.20;55.50;;;;;;4760553;30;20212;-82
2021/04/10 04:50:11;;;;;;;1.97;1.47;;;18.10;55.40;;;;;;4771512;30;20204;-81
2021/04/10 04:52:38;;;;;;;2.53;1.57;;;18.20;55.40;;;;;;4761925;30;20208;-81
2021/04/10 04:55:06;;;;;;;1.40;1.20;;;18.10;55.40;;;;;;4772355;30;20584;-82
2021/04/10 04:57:33;;;;;;;2.40;1.40;;;18.10;55.40;;;;;;4777736;30;20642;-82
2021/04/10 04:59:59;;;;;;;3.87;1.50;;;18.10;55.40;;;;;;4774856;30;20200;-81
2021/04/10 05:02:25;;;;;;;2.47;1.50;;;18.10;55.30;;;;;;4761501;30;20219;-80
2021/04/10 05:04:52;;;;;;;2.50;1.70;;;18.10;55.30;;;;;;4770519;30;20213;-81
2021/04/10 05:07:19;;;;;;;2.13;1.50;;;18.10;55.30;;;;;;4769494;30;20267;-81
2021/04/10 05:09:45;;;;;;;2.97;1.57;;;18.10;55.20;;;;;;4771704;30;20804;-81
2021/04/10 05:12:12;;;;;;;3.37;1.50;;;18.10;55.20;;;;;;4777226;29;20690;-81
2021/04/10 05:14:38;;;;;;;2.93;1.80;;;18.10;55.20;;;;;;4789980;30;20191;-81
2021/04/10 05:17:04;;;;;;;2.00;1.53;;;18.10;55.20;;;;;;4791268;30;20530;-82
2021/04/10 05:19:30;;;;;;;1.73;1.50;;;18.10;55.20;;;;;;4782304;30;20656;-79
2021/04/10 05:21:56;;;;;;;2.73;1.53;;;18.10;55.20;;;;;;4778811;29;20201;-82
2021/04/10 05:24:23;;;;;;;7.37;1.60;;;18.10;55.10;;;;;;4772010;30;20231;-82
2021/04/10 05:26:49;;;;;;;2.50;1.33;;;18.10;55.20;;;;;;4757116;30;20666;-83
2021/04/10 05:29:15;;;;;;;2.77;1.27;;;18.10;55.10;;;;;;4771462;30;20236;-83
2021/04/10 05:31:42;;;;;;;2.27;1.40;;;18.10;55.10;;;;;;4772464;30;20208;-83
2021/04/10 05:34:11;;;;;;;3.27;1.60;;;18.00;55.10;;;;;;4771810;30;20197;-83
2021/04/10 05:36:38;;;;;;;3.33;1.27;;;18.10;55.00;;;;;;4772173;30;20213;-82
2021/04/10 05:39:06;;;;;;;2.53;1.50;;;18.10;55.00;;;;;;4771726;29;20212;-82
2021/04/10 05:41:33;;;;;;;2.67;1.50;;;18.10;55.00;;;;;;4754086;29;20211;-83
2021/04/10 05:43:59;;;;;;;3.57;1.57;;;18.10;54.80;;;;;;4758506;30;20247;-83
2021/04/10 05:46:25;;;;;;;3.97;1.67;;;18.00;54.90;;;;;;4771893;29;20215;-83
2021/04/10 05:48:51;;;;;;;2.80;1.57;;;18.00;54.90;;;;;;4771365;29;20208;-83
2021/04/10 05:51:18;;;;;;;3.37;1.73;;;18.00;54.80;;;;;;4756778;30;20208;-82
2021/04/10 05:53:45;;;;;;;3.47;1.50;;;18.10;54.80;;;;;;4770793;30;20201;-82
2021/04/10 05:56:12;;;;;;;3.27;1.60;;;18.10;54.80;;;;;;4771619;30;20406;-83
2021/04/10 05:58:39;;;;;;;3.23;1.63;;;18.10;54.80;;;;;;4771746;30;20221;-82
2021/04/10 06:01:05;;;;;;;2.13;1.33;;;18.10;54.70;;;;;;4771662;30;20208;-83
2021/04/10 06:03:31;;;;;;;2.63;1.70;;;18.10;54.80;;;;;;4754066;30;20211;-82
2021/04/10 06:05:57;;;;;;;2.53;1.57;;;18.10;54.60;;;;;;4771995;29;20686;-81
2021/04/10 06:08:26;;;;;;;2.70;1.40;;;18.10;54.60;;;;;;4770574;30;20254;-82
2021/04/10 06:10:53;;;;;;;1.73;1.43;;;18.10;54.70;;;;;;4756014;30;20257;-82
2021/04/10 06:13:20;;;;;;;3.00;1.80;;;18.00;54.60;;;;;;4771146;30;20208;-82
2021/04/10 06:15:49;;;;;;;2.07;1.47;;;18.00;54.60;;;;;;4772137;30;20257;-82
2021/04/10 06:18:17;;;;;;;2.90;1.77;;;18.10;54.60;;;;;;4771293;30;20201;-82
2021/04/10 06:20:43;;;;;;;2.77;1.43;;;18.10;54.50;;;;;;4757933;30;20232;-82
2021/04/10 06:23:09;;;;;;;2.47;1.27;;;18.10;54.50;;;;;;4770216;30;20208;-82
2021/04/10 06:25:42;;;;;;;2.33;1.27;;;18.10;54.60;;;;;;4770679;29;20231;-82
2021/04/10 06:28:08;;;;;;;3.10;1.40;;;18.10;54.60;;;;;;4768221;30;20207;-82
2021/04/10 06:30:34;;;;;;;2.00;1.30;;;18.10;54.50;;;;;;4771705;30;20216;-83
2021/04/10 06:33:01;;;;;;;4.00;1.20;;;18.00;54.50;;;;;;4770486;30;20258;-82
2021/04/10 06:35:36;;;;;;;2.60;1.47;;;18.10;54.60;;;;;;4771811;30;20204;-82
2021/04/10 06:38:02;;;;;;;3.73;1.40;;;18.10;54.60;;;;;;4770502;30;20208;-82
2021/04/10 06:40:33;;;;;;;3.23;1.30;;;18.10;54.50;;;;;;4771488;30;20216;-82
2021/04/10 06:43:02;;;;;;;3.00;1.53;;;18.00;54.50;;;;;;4770559;29;20180;-82
2021/04/10 06:45:29;;;;;;;1.50;1.30;;;18.10;54.50;;;;;;4770940;30;20604;-82
2021/04/10 06:47:57;;;;;;;2.70;1.40;;;18.00;54.50;;;;;;4770668;29;20263;-81
2021/04/10 06:50:24;;;;;;;2.93;1.33;;;18.10;54.60;;;;;;4770769;30;20215;-82
2021/04/10 06:52:55;;;;;;;1.87;1.10;;;18.00;54.40;;;;;;4770363;29;20204;-82
2021/04/10 06:55:24;;;;;;;2.80;1.63;;;18.00;54.50;;;;;;4770508;30;20201;-85
2021/04/10 06:58:04;;;;;;;3.13;1.40;;;18.00;54.50;;;;;;4767971;30;20239;-83
2021/04/10 07:00:32;;;;;;;2.37;1.33;;;18.10;54.70;;;;;;4762139;29;20603;-81
2021/04/10 07:03:01;;;;;;;2.20;1.37;;;18.00;54.70;;;;;;4745198;30;20205;-81
2021/04/10 07:05:29;;;;;;;2.77;1.53;;;18.10;54.50;;;;;;4756678;30;20225;-82
2021/04/10 07:07:55;;;;;;;2.10;1.13;;;18.00;54.50;;;;;;4737212;30;20217;-80
2021/04/10 07:10:22;;;;;;;4.07;1.40;;;18.00;54.50;;;;;;4768165;30;20287;-82
2021/04/10 07:12:49;;;;;;;3.47;1.20;;;18.10;54.60;;;;;;4770428;29;20284;-83
2021/04/10 07:15:17;;;;;;;2.13;1.23;;;18.10;54.50;;;;;;4750649;29;20577;-82
2021/04/10 07:18:05;;;;;;;2.63;1.10;;;18.00;54.40;;;;;;4775139;30;20208;-79
2021/04/10 07:20:36;;;;;;;3.13;1.07;;;18.10;54.60;;;;;;4766208;30;20261;-84
2021/04/10 07:23:13;;;;;;;13.30;2.13;;;18.10;54.60;;;;;;4767489;30;20200;-83
2021/04/10 07:25:42;;;;;;;2.57;1.23;;;18.00;54.50;;;;;;4767273;29;20756;-82
2021/04/10 07:28:33;;;;;;;9.13;1.90;;;18.10;54.50;;;;;;4760998;30;20197;-83
2021/04/10 07:31:12;;;;;;;1.73;1.13;;;18.10;55.70;;;;;;4765077;30;20209;-86
2021/04/10 07:33:57;;;;;;;6.73;1.47;;;18.10;55.10;;;;;;4748443;29;20613;-84
2021/04/10 07:36:24;;;;;;;3.57;1.23;;;18.10;55.50;;;;;;4769991;30;20229;-84
2021/04/10 07:39:01;;;;;;;2.73;1.20;;;18.10;55.30;;;;;;4767067;29;20189;-84
2021/04/10 07:41:30;;;;;;;4.07;1.30;;;18.10;55.00;;;;;;4761439;30;20222;-85
2021/04/10 07:43:56;;;;;;;2.60;1.20;;;18.10;55.00;;;;;;4764617;29;20749;-85
2021/04/10 07:46:24;;;;;;;1.67;0.90;;;18.10;55.00;;;;;;4762909;30;20219;-82
2021/04/10 07:49:01;;;;;;;3.20;1.30;;;18.10;54.90;;;;;;4750198;30;20207;-85
2021/04/10 07:51:32;;;;;;;3.20;1.30;;;18.10;55.50;;;;;;4762999;30;20200;-83
2021/04/10 07:54:00;;;;;;;3.53;1.40;;;18.00;54.80;;;;;;4766971;30;20607;-84
2021/04/10 07:56:51;;;;;;;4.53;1.33;;;18.10;55.00;;;;;;4764229;30;20236;-83
2021/04/10 07:59:18;;;;;;;3.60;1.10;;;18.00;54.90;;;;;;4756866;30;20212;-84
2021/04/10 08:01:44;;;;;;;3.13;1.30;;;18.00;55.10;;;;;;4766693;29;20212;-84
2021/04/10 08:04:16;;;;;;;4.47;1.53;;;18.10;55.00;;;;;;4763564;30;20233;-84
2021/04/10 08:06:59;;;;;;;4.23;1.50;;;18.00;54.90;;;;;;4780211;30;20208;-83
2021/04/10 08:09:40;;;;;;;2.97;1.30;;;18.00;54.90;;;;;;4781950;29;20204;-83
2021/04/10 08:12:11;;;;;;;2.80;1.73;;;18.10;55.00;;;;;;4769816;29;20196;-83
2021/04/10 08:14:41;;;;;;;2.77;1.60;;;18.10;54.80;;;;;;4773526;29;20295;-83
2021/04/10 08:17:08;;;;;;;3.87;1.70;;;18.00;54.70;;;;;;4769591;29;20227;-84
2021/04/10 08:19:35;;;;;;;6.97;1.73;;;18.00;54.80;;;;;;4777867;30;20200;-83
2021/04/10 08:22:12;;;;;;;2.10;1.20;;;18.00;54.70;;;;;;4758093;30;20217;-84
2021/04/10 08:24:43;;;;;;;4.03;1.33;;;18.00;54.70;;;;;;4782448;30;20222;-83
2021/04/10 08:27:14;;;;;;;4.10;1.73;;;18.00;54.50;;;;;;4785985;29;20200;-85
2021/04/10 08:29:43;;;;;;;3.93;1.57;;;18.00;54.50;;;;;;4763895;30;20231;-84
2021/04/10 08:32:11;;;;;;;3.77;1.50;;;18.00;54.50;;;;;;4771280;29;20864;-83
2021/04/10 08:34:38;;;;;;;3.93;1.63;;;18.00;54.40;;;;;;4767360;30;20213;-84
2021/04/10 08:37:08;;;;;;;2.87;1.70;;;18.00;54.40;;;;;;4771332;30;20531;-83
2021/04/10 08:39:36;;;;;;;3.37;1.90;;;18.00;54.40;;;;;;4771693;30;20200;-83
2021/04/10 08:42:04;;;;;;;3.00;1.83;;;18.00;54.40;;;;;;4782273;29;20205;-84
2021/04/10 08:44:35;;;;;;;2.97;1.63;;;18.00;54.30;;;;;;4777957;29;20413;-86
2021/04/10 08:47:03;;;;;;;5.20;1.87;;;18.00;54.30;;;;;;4783832;30;20213;-84
2021/04/10 08:49:34;;;;;;;5.03;2.10;;;18.00;54.40;;;;;;4774070;29;20574;-82
2021/04/10 08:52:09;;;;;;;4.77;1.67;;;18.00;55.00;;;;;;4770215;29;20213;-81
2021/04/10 08:54:38;;;;;;;2.93;1.67;;;18.00;54.80;;;;;;4781842;30;20223;-82
2021/04/10 08:57:12;;;;;;;5.90;1.80;;;18.00;54.50;;;;;;4771838;29;20244;-82
2021/04/10 08:59:44;;;;;;;4.30;1.50;;;18.00;54.60;;;;;;4772266;29;20213;-83
2021/04/10 09:02:14;;;;;;;4.67;2.00;;;18.00;54.50;;;;;;4770980;29;20222;-83
2021/04/10 09:05:04;;;;;;;4.43;1.70;;;18.00;54.40;;;;;;4766627;30;20219;-83
2021/04/10 09:07:48;;;;;;;3.20;1.60;;;18.00;54.50;;;;;;4776679;29;20213;-81
2021/04/10 09:10:24;;;;;;;8.30;2.20;;;18.00;54.50;;;;;;4772794;29;20691;-82
2021/04/10 09:13:05;;;;;;;13.43;2.00;;;18.00;55.10;;;;;;4785570;30;20602;-83
2021/04/10 09:19:16;;;;;;;5.57;2.20;;;18.20;55.40;;;;;;4892202;24;20243;-88
2021/04/10 09:22:52;;;;;;;5.87;2.00;;;18.20;55.30;;;;;;4789547;29;20223;-86
2021/04/10 09:26:47;;;;;;;4.47;1.97;;;18.20;54.90;;;;;;4783541;29;20231;-87
2021/04/10 09:31:08;;;;;;;5.67;2.13;;;18.20;54.60;;;;;;4780657;30;20234;-87
2021/04/10 09:35:28;;;;;;;5.00;2.47;;;18.20;54.20;;;;;;4787639;29;20208;-88
2021/04/10 09:39:49;;;;;;;5.33;2.37;;;18.20;54.10;;;;;;4753970;30;20201;-86
2021/04/10 09:43:19;;;;;;;4.80;2.10;;;18.30;53.90;;;;;;4749069;29;20713;-85
2021/04/10 09:45:54;;;;;;;7.33;2.80;;;18.30;53.70;;;;;;4736962;30;20240;-84
2021/04/10 09:48:59;;;;;;;7.90;3.13;;;18.30;53.70;;;;;;4730090;30;20216;-84
2021/04/10 09:51:52;;;;;;;8.20;2.90;;;18.40;53.60;;;;;;4736603;30;20478;-84
2021/04/10 09:54:23;;;;;;;9.33;3.33;;;18.40;53.60;;;;;;4717794;30;20228;-84
2021/04/10 09:56:52;;;;;;;9.57;3.43;;;18.40;53.50;;;;;;4719650;30;20273;-84
2021/04/10 09:59:19;;;;;;;11.50;3.83;;;18.40;53.30;;;;;;4745758;29;20266;-86
2021/04/10 10:01:45;;;;;;;37.23;8.60;;;18.40;53.60;;;;;;4745201;30;20210;-86
2021/04/10 10:04:14;;;;;;;35.27;8.17;;;18.50;56.50;;;;;;4747244;30;20245;-95
2021/04/10 10:06:48;;;;;;;25.40;8.03;;;18.60;58.20;;;;;;4744192;30;20197;-94
2021/04/10 10:09:30;;;;;;;24.20;8.07;;;18.70;59.00;;;;;;4767192;29;20224;-96
2021/04/10 10:11:57;;;;;;;28.20;8.50;;;18.80;59.50;;;;;;4728664;24;20325;-92
2021/04/10 10:14:24;;;;;;;28.00;8.03;;;18.90;59.50;;;;;;4755024;29;20283;-93
2021/04/10 10:16:53;;;;;;;26.47;8.80;;;18.90;59.50;;;;;;4753812;29;20212;-92
2021/04/10 10:19:20;;;;;;;21.67;8.17;;;19.00;59.40;;;;;;4750516;29;20233;-89
2021/04/10 10:21:47;;;;;;;17.83;7.70;;;19.00;59.50;;;;;;4751959;30;20217;-88
2021/04/10 10:24:20;;;;;;;25.80;8.13;;;19.10;59.30;;;;;;4761502;30;20244;-93
2021/04/10 10:26:46;;;;;;;20.37;7.50;;;19.10;59.10;;;;;;4767531;29;20204;-90
2021/04/10 10:29:15;;;;;;;20.63;8.30;;;19.10;58.70;;;;;;4766789;29;20224;-93
2021/04/10 10:31:50;;;;;;;21.63;7.57;;;19.20;58.30;;;;;;4762725;29;20666;-90
2021/04/10 10:34:22;;;;;;;22.63;7.23;;;19.20;57.80;;;;;;4765024;29;20204;-86
2021/04/10 10:36:50;;;;;;;19.97;7.30;;;19.20;57.50;;;;;;4755480;30;20666;-88
2021/04/10 10:39:25;;;;;;;16.03;6.57;;;19.30;56.70;;;;;;4751960;29;20214;-86
2021/04/10 10:42:05;;;;;;;11.57;6.00;;;19.30;56.40;;;;;;4756284;29;20685;-87
2021/04/10 10:44:36;;;;;;;12.53;6.50;;;19.30;56.00;;;;;;4755009;30;20220;-91
2021/04/10 10:47:07;;;;;;;15.67;5.73;;;19.30;55.70;;;;;;4763595;30;20286;-89
2021/04/10 10:49:35;;;;;;;11.23;6.37;;;19.30;55.30;;;;;;4734120;30;20244;-89
2021/04/10 10:52:05;;;;;;;10.80;6.10;;;19.30;55.60;;;;;;4752165;29;20209;-88
2021/04/10 10:54:36;;;;;;;13.63;6.27;;;19.40;55.40;;;;;;4758211;30;20208;-87
2021/04/10 10:57:10;;;;;;;11.73;6.33;;;19.40;54.70;;;;;;4732838;30;20214;-84
2021/04/10 10:59:56;;;;;;;9.53;6.20;;;19.30;54.60;;;;;;4729502;30;20888;-82
2021/04/10 11:02:23;;;;;;;9.60;6.30;;;19.20;55.50;;;;;;4731318;30;20213;-82
2021/04/10 11:04:51;;;;;;;12.63;5.47;;;19.40;55.80;;;;;;4736436;30;20230;-83
2021/04/10 11:07:23;;;;;;;8.83;5.07;;;19.50;55.50;;;;;;4731984;30;20214;-88
2021/04/10 11:09:51;;;;;;;11.93;5.80;;;19.60;55.60;;;;;;4730763;30;20664;-80
2021/04/10 11:12:17;;;;;;;9.83;5.43;;;19.50;55.50;;;;;;4741736;30;20595;-83
2021/04/10 11:14:46;;;;;;;10.60;5.70;;;19.60;55.20;;;;;;4745630;30;20216;-81
2021/04/10 11:17:29;;;;;;;11.30;5.30;;;19.70;55.00;;;;;;4731394;30;20229;-83
2021/04/10 11:19:58;;;;;;;8.10;5.00;;;19.70;54.60;;;;;;4754148;24;20474;-96
2021/04/10 11:22:38;;;;;;;12.27;5.17;;;19.70;54.50;;;;;;4762509;24;20296;31
2021/04/10 11:25:06;;;;;;;9.43;4.93;;;19.70;54.50;;;;;;4761484;24;20249;-91
2021/04/10 11:27:36;;;;;;;6.87;4.40;;;19.80;54.20;;;;;;4764590;24;20772;-84
2021/04/10 11:30:12;;;;;;;7.20;4.63;;;19.80;54.30;;;;;;4752622;30;20269;-83
2021/04/10 11:49:35;;;;;;;5.30;3.97;;;20.10;53.50;;;;;;4896101;24;20244;-84
2021/04/10 11:52:09;;;;;;;6.20;4.03;;;20.10;53.40;;;;;;4751281;30;20260;-84
2021/04/10 11:54:37;;;;;;;5.63;4.07;;;20.10;53.50;;;;;;4748574;30;20495;-85
2021/04/10 11:57:26;;;;;;;5.07;3.80;;;20.20;53.50;;;;;;4755465;30;20201;-87
2021/04/10 12:00:00;;;;;;;6.17;4.03;;;20.20;53.20;;;;;;4750178;30;20622;-84
2021/04/10 12:02:26;;;;;;;6.07;3.80;;;20.20;53.20;;;;;;4749913;30;20247;-82
2021/04/10 12:04:55;;;;;;;5.27;3.90;;;20.30;53.10;;;;;;4750839;30;20213;-83
2021/04/10 12:07:26;;;;;;;5.97;3.60;;;20.20;53.00;;;;;;4754774;30;20606;-86
2021/04/10 12:09:55;;;;;;;4.97;3.77;;;20.30;53.10;;;;;;4748681;30;20244;-86
2021/04/10 12:12:21;;;;;;;5.77;3.50;;;20.30;53.10;;;;;;4765699;30;20843;-93
2021/04/10 12:14:47;;;;;;;5.63;4.03;;;20.30;53.10;;;;;;4747122;29;20236;-85
2021/04/10 12:17:14;;;;;;;4.03;3.37;;;20.30;53.00;;;;;;4743916;30;20678;-85
2021/04/10 12:19:41;;;;;;;4.63;3.23;;;20.30;52.80;;;;;;4750507;30;20262;-87
2021/04/10 12:22:08;;;;;;;8.17;3.90;;;20.40;52.80;;;;;;4750208;29;20561;-86
2021/04/10 12:24:34;;;;;;;4.20;3.53;;;20.40;52.60;;;;;;4754587;30;20197;-89
2021/04/10 12:27:01;;;;;;;7.67;3.80;;;20.30;52.60;;;;;;4749725;30;20222;-87
2021/04/10 12:29:27;;;;;;;6.67;3.30;;;20.40;52.60;;;;;;4746165;30;20212;-90
2021/04/10 12:31:54;;;;;;;4.57;4.00;;;20.40;52.50;;;;;;4751225;30;20305;-87
2021/04/10 12:34:21;;;;;;;5.47;3.57;;;20.40;52.80;;;;;;4752455;30;20274;-86
2021/04/10 12:36:49;;;;;;;5.67;3.93;;;20.40;53.10;;;;;;4754323;29;20197;-89
2021/04/10 12:39:24;;;;;;;9.30;3.77;;;20.40;52.80;;;;;;4751201;30;20240;-86
2021/04/10 12:41:50;;;;;;;8.07;3.70;;;20.40;53.00;;;;;;4752216;30;20551;-82
2021/04/10 12:44:18;;;;;;;6.50;3.90;;;20.40;53.20;;;;;;4753430;29;20236;-83
2021/04/10 12:46:46;;;;;;;10.77;5.93;;;20.40;53.00;;;;;;4759386;30;20652;-83
2021/04/10 12:49:12;;;;;;;7.87;5.10;;;20.30;53.90;;;;;;4761803;30;20216;-84
2021/04/10 12:51:42;;;;;;;7.23;4.73;;;20.20;54.00;;;;;;4750701;30;20303;-88
2021/04/10 12:54:12;;;;;;;7.03;5.10;;;20.10;55.20;;;;;;4752226;30;20459;-87
2021/04/10 12:56:41;;;;;;;;;;;20.20;54.60;;;;;;4754410;30;20069;-91
2021/04/10 12:59:07;;;;;;;;;;;20.20;55.40;;;;;;4749725;30;19926;-88
2021/04/10 13:01:33;;;;;;;;;;;20.20;55.90;;;;;;4753583;30;19926;-82
2021/04/10 13:04:08;;;;;;;;;;;20.30;55.00;;;;;;4752994;29;20371;-86
2021/04/10 13:06:34;;;;;;;;;;;20.30;55.10;;;;;;4736627;30;19933;-82
2021/04/10 13:17:10;;;;;;;;;;;20.40;54.50;;;;;;5330863;24;19926;-89
2021/04/10 13:19:37;;;;;;;;;;;20.40;54.40;;;;;;4751933;30;19925;-88
2021/04/10 13:22:04;;;;;;;;;;;20.50;54.30;;;;;;4750322;30;19978;-86
2021/04/10 13:24:33;;;;;;;;;;;20.40;54.30;;;;;;4766477;29;19936;-84
2021/04/10 13:27:04;;;;;;;;;;;20.30;54.80;;;;;;4777246;29;19965;-84
2021/04/10 13:29:30;;;;;;;;;;;20.20;55.60;;;;;;4770206;29;19926;-84
2021/04/10 13:31:57;;;;;;;;;;;20.20;55.90;;;;;;4763045;30;19934;-82
2021/04/10 13:34:23;;;;;;;;;;;20.10;56.10;;;;;;4750671;30;19961;-83
2021/04/10 13:36:50;;;;;;;;;;;20.00;56.00;;;;;;4768394;30;19936;-83
2021/04/10 13:39:18;;;;;;;;;;;20.00;57.00;;;;;;4760250;30;20288;-85
2021/04/10 13:41:51;;;;;;;;;;;20.00;56.20;;;;;;4770024;30;19937;-85